ADDS TAF Board (Experimental) INFO Settings
IDs: Format: Expanded Condensed

KSAN - San Diego Intl Arpt, CA, US

Issued at 0524 UTC 02 Aug 2015
Updated at: 0815 UTC 02 Aug 2015
Time0751Z 02/09Z 02/10Z 02/11Z 02/12Z 02/13Z 02/14Z 02/15Z 02/16Z 02/17Z 02/18Z 02/19Z 02/20Z 02/21Z
Type OBS PRVL PRVL PRVL PRVL PRVL PRVL PRVL PRVL PRVL PRVL PRVL PRVL PRVL
VIS 10 >6 >6 >6 >6 >6 >6 >6 >6 >6 >6 >6 >6 >6
CIG 15 15 15 15 15 15 15 15 15 15 15 -- -- --
Cover OVC OVC OVC OVC OVC OVC OVC OVC OVC OVC OVC SCT SCT SCT
FltCat MVFR MVFR MVFR MVFR MVFR MVFR MVFR MVFR MVFR MVFR MVFR VFR VFR VFR
WX -- -- -- -- -- -- -- -- -- -- -- -- -- --
WDir 30 VRB VRB VRB VRB VRB VRB VRB VRB VRB VRB 280 280 280
WSpd 3 4 4 4 4 4 4 4 4 4 4 10 10 10
WGst -- -- -- -- -- -- -- -- -- -- -- -- -- --
R09/27
XWnd 3 VRB VRB VRB VRB VRB VRB VRB VRB VRB VRB -1 -1 -1
HWnd 1 VRB VRB VRB VRB VRB VRB VRB VRB VRB VRB -10 -10 -10

NOTE: TEMPO conditions in [brackets]. Keep in mind TEMPO conditions might be better (lower impact) than prevailing conditions.

Raw TAF
KSAN 020524Z 0206/0312 VRB04KT P6SM OVC015
  FM021900 28010KT P6SM SCT019 SCT250
  FM030200 VRB05KT P6SM SCT017 SCT250
  FM030400 VRB04KT P6SM OVC014


Raw METAR
KSAN 020751Z 03003KT 10SM OVC015 21/17 A2993 RMK AO2 SLP136 T02110167 402500211 $
KSAN 020651Z 35003KT 10SM OVC015 21/17 A2994 RMK AO2 SLP138 T02110167 $
KSAN 020551Z 31003KT 10SM OVC015 21/17 A2995 RMK AO2 SLP141 T02110167 10239 20211 51008 $

METAR Board
Radar Display
Forecast Discussion

TAF Board Legend

Potential Impact
Threat None Slight Moderate High
Visibility (sm) ≥5.1 5.1>X≥3 3>X≥1 <1
Ceiling (100 ft) ≥30.1 30.1>X≥10 10>X≥5 <5
Wind Speed (kt) <10 10≤X<20 20≤X<30 ≥30
Wind Gust (kt) <15 15≤X<25 25≤X<35 ≥35
Weather No Wx Reported VCTS,-TS,-FZRA,SN TS,FZRA +TS,+FZRA,+SN